sensor_id;sensor_type;location;lat;lon;timestamp;temperature;humidity
21672;DHT22;10997;52.242;8.168;2023-05-10T00:02:44;14.30;99.90
21672;DHT22;10997;52.242;8.168;2023-05-10T00:07:45;14.40;99.90
21672;DHT22;10997;52.242;8.168;2023-05-10T00:12:46;14.30;99.90
21672;DHT22;10997;52.242;8.168;2023-05-10T00:17:47;14.30;99.90
21672;DHT22;10997;52.242;8.168;2023-05-10T00:22:47;14.30;99.90
21672;DHT22;10997;52.242;8.168;2023-05-10T00:27:48;14.20;99.90
21672;DHT22;10997;52.242;8.168;2023-05-10T00:32:48;14.20;99.90
21672;DHT22;10997;52.242;8.168;2023-05-10T00:37:50;14.10;99.90
21672;DHT22;10997;52.242;8.168;2023-05-10T00:42:50;14.20;99.90
21672;DHT22;10997;52.242;8.168;2023-05-10T00:47:51;14.20;99.90
21672;DHT22;10997;52.242;8.168;2023-05-10T00:52:55;14.20;99.90
21672;DHT22;10997;52.242;8.168;2023-05-10T00:57:55;14.20;99.90
21672;DHT22;10997;52.242;8.168;2023-05-10T01:02:56;14.10;99.90
21672;DHT22;10997;52.242;8.168;2023-05-10T01:07:57;14.10;99.90
21672;DHT22;10997;52.242;8.168;2023-05-10T01:12:59;14.10;99.90
21672;DHT22;10997;52.242;8.168;2023-05-10T01:18:00;14.10;99.90
21672;DHT22;10997;52.242;8.168;2023-05-10T01:23:42;14.10;99.90
21672;DHT22;10997;52.242;8.168;2023-05-10T01:29:18;14.00;99.90
21672;DHT22;10997;52.242;8.168;2023-05-10T01:34:25;14.10;99.90
21672;DHT22;10997;52.242;8.168;2023-05-10T01:39:45;14.00;99.90
21672;DHT22;10997;52.242;8.168;2023-05-10T01:50:24;14.00;99.90
21672;DHT22;10997;52.242;8.168;2023-05-10T01:55:32;14.00;99.90
21672;DHT22;10997;52.242;8.168;2023-05-10T02:00:34;14.00;99.90
21672;DHT22;10997;52.242;8.168;2023-05-10T02:05:36;14.00;99.90
21672;DHT22;10997;52.242;8.168;2023-05-10T02:10:37;14.00;99.90
21672;DHT22;10997;52.242;8.168;2023-05-10T02:15:40;13.90;99.90
21672;DHT22;10997;52.242;8.168;2023-05-10T02:20:43;13.90;99.90
21672;DHT22;10997;52.242;8.168;2023-05-10T02:25:46;13.80;99.90
21672;DHT22;10997;52.242;8.168;2023-05-10T02:30:47;13.80;99.90
21672;DHT22;10997;52.242;8.168;2023-05-10T02:35:49;13.80;99.90
21672;DHT22;10997;52.242;8.168;2023-05-10T02:40:51;13.70;99.90
21672;DHT22;10997;52.242;8.168;2023-05-10T02:45:52;13.70;99.90
21672;DHT22;10997;52.242;8.168;2023-05-10T02:50:54;13.70;99.90
21672;DHT22;10997;52.242;8.168;2023-05-10T02:55:59;13.70;99.90
21672;DHT22;10997;52.242;8.168;2023-05-10T03:01:02;13.70;99.90
21672;DHT22;10997;52.242;8.168;2023-05-10T03:06:03;13.70;99.90
21672;DHT22;10997;52.242;8.168;2023-05-10T03:11:47;13.70;99.90
21672;DHT22;10997;52.242;8.168;2023-05-10T03:17:06;13.70;99.90
21672;DHT22;10997;52.242;8.168;2023-05-10T03:22:10;13.60;99.90
21672;DHT22;10997;52.242;8.168;2023-05-10T03:27:14;13.20;99.90
21672;DHT22;10997;52.242;8.168;2023-05-10T03:32:15;12.90;99.90
21672;DHT22;10997;52.242;8.168;2023-05-10T03:37:16;12.80;99.90
21672;DHT22;10997;52.242;8.168;2023-05-10T03:42:16;12.60;99.90
21672;DHT22;10997;52.242;8.168;2023-05-10T03:47:18;12.60;99.90
21672;DHT22;10997;52.242;8.168;2023-05-10T03:52:18;12.60;99.90
21672;DHT22;10997;52.242;8.168;2023-05-10T03:57:19;12.50;99.90
21672;DHT22;10997;52.242;8.168;2023-05-10T04:02:19;12.50;99.90
21672;DHT22;10997;52.242;8.168;2023-05-10T04:07:20;12.50;99.90
21672;DHT22;10997;52.242;8.168;2023-05-10T04:12:21;12.50;99.90
21672;DHT22;10997;52.242;8.168;2023-05-10T04:17:21;12.40;99.90
21672;DHT22;10997;52.242;8.168;2023-05-10T04:22:22;12.40;99.90
21672;DHT22;10997;52.242;8.168;2023-05-10T04:27:22;12.30;99.90
21672;DHT22;10997;52.242;8.168;2023-05-10T04:32:23;12.40;99.90
21672;DHT22;10997;52.242;8.168;2023-05-10T04:37:24;12.40;99.90
21672;DHT22;10997;52.242;8.168;2023-05-10T04:42:24;12.40;99.90
21672;DHT22;10997;52.242;8.168;2023-05-10T04:47:25;12.40;99.90
21672;DHT22;10997;52.242;8.168;2023-05-10T04:52:26;12.40;99.90
21672;DHT22;10997;52.242;8.168;2023-05-10T04:57:26;12.40;99.90
21672;DHT22;10997;52.242;8.168;2023-05-10T05:02:27;12.40;99.90
21672;DHT22;10997;52.242;8.168;2023-05-10T05:07:27;12.40;99.90
21672;DHT22;10997;52.242;8.168;2023-05-10T05:12:28;12.40;99.90
21672;DHT22;10997;52.242;8.168;2023-05-10T05:17:30;12.50;99.90
21672;DHT22;10997;52.242;8.168;2023-05-10T05:22:31;12.50;99.90
21672;DHT22;10997;52.242;8.168;2023-05-10T05:27:32;12.50;99.90
21672;DHT22;10997;52.242;8.168;2023-05-10T05:32:32;12.50;99.90
21672;DHT22;10997;52.242;8.168;2023-05-10T05:37:33;12.60;99.90
21672;DHT22;10997;52.242;8.168;2023-05-10T05:42:33;12.60;99.90
21672;DHT22;10997;52.242;8.168;2023-05-10T05:47:34;12.50;99.90
21672;DHT22;10997;52.242;8.168;2023-05-10T05:52:35;12.50;99.90
21672;DHT22;10997;52.242;8.168;2023-05-10T05:57:36;12.50;99.90
21672;DHT22;10997;52.242;8.168;2023-05-10T06:02:36;12.60;99.90
21672;DHT22;10997;52.242;8.168;2023-05-10T06:07:37;12.60;99.90
21672;DHT22;10997;52.242;8.168;2023-05-10T06:12:38;12.70;99.90
21672;DHT22;10997;52.242;8.168;2023-05-10T06:17:38;12.70;99.90
21672;DHT22;10997;52.242;8.168;2023-05-10T06:22:39;12.80;99.90
21672;DHT22;10997;52.242;8.168;2023-05-10T06:27:39;12.80;99.90
21672;DHT22;10997;52.242;8.168;2023-05-10T06:32:41;13.00;99.90
21672;DHT22;10997;52.242;8.168;2023-05-10T06:37:44;12.90;99.90
21672;DHT22;10997;52.242;8.168;2023-05-10T06:42:44;13.00;99.90
21672;DHT22;10997;52.242;8.168;2023-05-10T06:47:46;13.00;99.90
21672;DHT22;10997;52.242;8.168;2023-05-10T06:52:47;13.00;99.90
21672;DHT22;10997;52.242;8.168;2023-05-10T06:57:47;13.10;99.90
21672;DHT22;10997;52.242;8.168;2023-05-10T07:02:48;13.10;99.90
21672;DHT22;10997;52.242;8.168;2023-05-10T07:07:48;13.30;99.90
21672;DHT22;10997;52.242;8.168;2023-05-10T07:12:49;13.30;99.90
21672;DHT22;10997;52.242;8.168;2023-05-10T07:17:50;13.30;99.90
21672;DHT22;10997;52.242;8.168;2023-05-10T07:22:52;13.30;99.90
21672;DHT22;10997;52.242;8.168;2023-05-10T07:27:52;13.40;99.90
21672;DHT22;10997;52.242;8.168;2023-05-10T07:32:53;13.80;99.90
21672;DHT22;10997;52.242;8.168;2023-05-10T07:37:53;13.90;99.90
21672;DHT22;10997;52.242;8.168;2023-05-10T07:42:54;14.10;99.90
21672;DHT22;10997;52.242;8.168;2023-05-10T07:47:55;14.10;99.90
21672;DHT22;10997;52.242;8.168;2023-05-10T07:52:55;14.20;99.90
21672;DHT22;10997;52.242;8.168;2023-05-10T07:57:56;14.10;99.90
21672;DHT22;10997;52.242;8.168;2023-05-10T08:02:57;14.10;99.90
21672;DHT22;10997;52.242;8.168;2023-05-10T08:07:58;14.10;99.90
21672;DHT22;10997;52.242;8.168;2023-05-10T08:12:59;14.10;99.90
21672;DHT22;10997;52.242;8.168;2023-05-10T08:18:00;14.30;99.90
21672;DHT22;10997;52.242;8.168;2023-05-10T08:23:01;14.70;99.90
21672;DHT22;10997;52.242;8.168;2023-05-10T08:28:01;14.90;99.90
21672;DHT22;10997;52.242;8.168;2023-05-10T08:33:02;15.30;99.90
21672;DHT22;10997;52.242;8.168;2023-05-10T08:38:02;15.30;99.90
21672;DHT22;10997;52.242;8.168;2023-05-10T08:43:08;15.50;99.90
21672;DHT22;10997;52.242;8.168;2023-05-10T08:48:09;15.70;99.90
21672;DHT22;10997;52.242;8.168;2023-05-10T08:53:12;15.70;99.90
21672;DHT22;10997;52.242;8.168;2023-05-10T08:58:13;15.90;99.90
21672;DHT22;10997;52.242;8.168;2023-05-10T09:03:14;16.20;99.90
21672;DHT22;10997;52.242;8.168;2023-05-10T09:08:15;16.20;99.90
21672;DHT22;10997;52.242;8.168;2023-05-10T09:13:17;16.00;99.90
21672;DHT22;10997;52.242;8.168;2023-05-10T09:18:18;15.90;99.90
21672;DHT22;10997;52.242;8.168;2023-05-10T09:23:19;16.10;99.90
21672;DHT22;10997;52.242;8.168;2023-05-10T09:28:20;16.00;99.90
21672;DHT22;10997;52.242;8.168;2023-05-10T09:33:20;16.30;99.90
21672;DHT22;10997;52.242;8.168;2023-05-10T09:38:21;16.60;99.90
21672;DHT22;10997;52.242;8.168;2023-05-10T09:43:21;16.70;99.90
21672;DHT22;10997;52.242;8.168;2023-05-10T09:48:24;16.60;99.90
21672;DHT22;10997;52.242;8.168;2023-05-10T09:53:25;16.80;99.90
21672;DHT22;10997;52.242;8.168;2023-05-10T09:58:25;16.60;99.90
21672;DHT22;10997;52.242;8.168;2023-05-10T10:03:26;16.50;99.90
21672;DHT22;10997;52.242;8.168;2023-05-10T10:08:27;16.50;99.90
21672;DHT22;10997;52.242;8.168;2023-05-10T10:13:27;16.90;99.90
21672;DHT22;10997;52.242;8.168;2023-05-10T10:18:29;16.80;99.90
21672;DHT22;10997;52.242;8.168;2023-05-10T10:23:30;16.70;99.90
21672;DHT22;10997;52.242;8.168;2023-05-10T10:29:05;16.80;99.90
21672;DHT22;10997;52.242;8.168;2023-05-10T10:34:26;16.90;99.90
21672;DHT22;10997;52.242;8.168;2023-05-10T10:39:28;17.40;99.90
21672;DHT22;10997;52.242;8.168;2023-05-10T10:44:38;17.60;99.90
21672;DHT22;10997;52.242;8.168;2023-05-10T10:49:48;17.70;99.90
21672;DHT22;10997;52.242;8.168;2023-05-10T11:10:29;17.40;99.90
21672;DHT22;10997;52.242;8.168;2023-05-10T11:20:38;17.50;99.90
21672;DHT22;10997;52.242;8.168;2023-05-10T11:25:43;17.70;99.90
21672;DHT22;10997;52.242;8.168;2023-05-10T11:30:48;17.80;99.90
21672;DHT22;10997;52.242;8.168;2023-05-10T11:35:49;17.80;99.90
21672;DHT22;10997;52.242;8.168;2023-05-10T11:40:51;18.10;99.90
21672;DHT22;10997;52.242;8.168;2023-05-10T11:45:54;18.20;99.90
21672;DHT22;10997;52.242;8.168;2023-05-10T11:50:55;18.50;99.90
21672;DHT22;10997;52.242;8.168;2023-05-10T11:56:09;18.30;99.90
21672;DHT22;10997;52.242;8.168;2023-05-10T12:01:10;18.40;99.90
21672;DHT22;10997;52.242;8.168;2023-05-10T12:06:11;18.40;99.90
21672;DHT22;10997;52.242;8.168;2023-05-10T12:11:13;18.80;99.90
21672;DHT22;10997;52.242;8.168;2023-05-10T12:16:19;18.90;99.90
21672;DHT22;10997;52.242;8.168;2023-05-10T12:21:21;18.60;99.90
21672;DHT22;10997;52.242;8.168;2023-05-10T12:26:22;18.60;99.90
21672;DHT22;10997;52.242;8.168;2023-05-10T12:31:24;18.90;99.90
21672;DHT22;10997;52.242;8.168;2023-05-10T12:36:25;19.30;99.90
21672;DHT22;10997;52.242;8.168;2023-05-10T12:41:26;19.40;99.90
21672;DHT22;10997;52.242;8.168;2023-05-10T12:46:26;19.40;99.90
21672;DHT22;10997;52.242;8.168;2023-05-10T12:51:28;19.00;99.90
21672;DHT22;10997;52.242;8.168;2023-05-10T12:56:28;19.10;99.90
21672;DHT22;10997;52.242;8.168;2023-05-10T13:01:29;19.10;99.90
21672;DHT22;10997;52.242;8.168;2023-05-10T13:06:29;19.40;99.90
21672;DHT22;10997;52.242;8.168;2023-05-10T13:11:31;19.30;99.90
21672;DHT22;10997;52.242;8.168;2023-05-10T13:16:31;19.40;99.90
21672;DHT22;10997;52.242;8.168;2023-05-10T13:21:32;19.40;99.90
21672;DHT22;10997;52.242;8.168;2023-05-10T13:26:33;18.90;99.90
21672;DHT22;10997;52.242;8.168;2023-05-10T13:31:34;18.50;99.90
21672;DHT22;10997;52.242;8.168;2023-05-10T13:36:35;18.30;99.90
21672;DHT22;10997;52.242;8.168;2023-05-10T13:41:36;18.20;99.90
21672;DHT22;10997;52.242;8.168;2023-05-10T13:46:37;18.00;99.90
21672;DHT22;10997;52.242;8.168;2023-05-10T13:51:38;18.20;99.90
21672;DHT22;10997;52.242;8.168;2023-05-10T13:56:40;18.50;99.90
21672;DHT22;10997;52.242;8.168;2023-05-10T14:01:44;18.20;99.90
21672;DHT22;10997;52.242;8.168;2023-05-10T14:06:45;17.70;99.90
21672;DHT22;10997;52.242;8.168;2023-05-10T14:11:45;17.20;99.90
21672;DHT22;10997;52.242;8.168;2023-05-10T14:16:46;17.40;99.90
21672;DHT22;10997;52.242;8.168;2023-05-10T14:21:47;17.80;99.90
21672;DHT22;10997;52.242;8.168;2023-05-10T14:26:47;18.50;99.90
21672;DHT22;10997;52.242;8.168;2023-05-10T14:31:48;18.40;99.90
21672;DHT22;10997;52.242;8.168;2023-05-10T14:36:49;18.50;99.90
21672;DHT22;10997;52.242;8.168;2023-05-10T14:41:50;18.80;99.90
21672;DHT22;10997;52.242;8.168;2023-05-10T14:46:51;18.90;99.90
21672;DHT22;10997;52.242;8.168;2023-05-10T14:51:52;18.70;99.90
21672;DHT22;10997;52.242;8.168;2023-05-10T14:56:53;18.40;99.90
21672;DHT22;10997;52.242;8.168;2023-05-10T15:01:53;18.10;99.90
21672;DHT22;10997;52.242;8.168;2023-05-10T15:06:54;16.80;99.90
21672;DHT22;10997;52.242;8.168;2023-05-10T15:11:59;16.00;99.90
21672;DHT22;10997;52.242;8.168;2023-05-10T15:16:59;15.90;99.90
21672;DHT22;10997;52.242;8.168;2023-05-10T15:22:00;16.00;99.90
21672;DHT22;10997;52.242;8.168;2023-05-10T15:27:01;16.10;99.90
21672;DHT22;10997;52.242;8.168;2023-05-10T15:32:01;16.30;99.90
21672;DHT22;10997;52.242;8.168;2023-05-10T15:37:04;16.30;99.90
21672;DHT22;10997;52.242;8.168;2023-05-10T15:42:04;16.40;99.90
21672;DHT22;10997;52.242;8.168;2023-05-10T15:47:05;16.50;99.90
21672;DHT22;10997;52.242;8.168;2023-05-10T15:52:06;16.70;99.90
21672;DHT22;10997;52.242;8.168;2023-05-10T15:57:06;16.90;99.90
21672;DHT22;10997;52.242;8.168;2023-05-10T16:02:08;17.00;99.90
21672;DHT22;10997;52.242;8.168;2023-05-10T16:07:10;17.20;99.90
21672;DHT22;10997;52.242;8.168;2023-05-10T16:12:11;17.20;99.90
21672;DHT22;10997;52.242;8.168;2023-05-10T16:17:11;17.30;99.90
21672;DHT22;10997;52.242;8.168;2023-05-10T16:22:12;17.00;99.90
21672;DHT22;10997;52.242;8.168;2023-05-10T16:27:13;16.80;99.90
21672;DHT22;10997;52.242;8.168;2023-05-10T16:32:13;16.70;99.90
21672;DHT22;10997;52.242;8.168;2023-05-10T16:37:14;16.80;99.90
21672;DHT22;10997;52.242;8.168;2023-05-10T16:42:15;16.70;99.90
21672;DHT22;10997;52.242;8.168;2023-05-10T16:47:15;16.60;99.90
21672;DHT22;10997;52.242;8.168;2023-05-10T16:52:16;16.50;99.90
21672;DHT22;10997;52.242;8.168;2023-05-10T16:57:17;16.40;99.90
21672;DHT22;10997;52.242;8.168;2023-05-10T17:02:18;16.40;99.90
21672;DHT22;10997;52.242;8.168;2023-05-10T17:07:18;16.40;99.90
21672;DHT22;10997;52.242;8.168;2023-05-10T17:12:19;16.50;99.90
21672;DHT22;10997;52.242;8.168;2023-05-10T17:17:19;16.50;99.90
21672;DHT22;10997;52.242;8.168;2023-05-10T17:22:20;16.50;99.90
21672;DHT22;10997;52.242;8.168;2023-05-10T17:27:21;16.30;99.90
21672;DHT22;10997;52.242;8.168;2023-05-10T17:32:22;16.20;99.90
21672;DHT22;10997;52.242;8.168;2023-05-10T17:37:22;16.20;99.90
21672;DHT22;10997;52.242;8.168;2023-05-10T17:42:23;16.10;99.90
21672;DHT22;10997;52.242;8.168;2023-05-10T17:47:23;15.90;99.90
21672;DHT22;10997;52.242;8.168;2023-05-10T17:52:24;15.90;99.90
21672;DHT22;10997;52.242;8.168;2023-05-10T17:57:25;16.00;99.90
21672;DHT22;10997;52.242;8.168;2023-05-10T18:02:25;16.00;99.90
21672;DHT22;10997;52.242;8.168;2023-05-10T18:07:26;16.00;99.90
21672;DHT22;10997;52.242;8.168;2023-05-10T18:12:29;15.90;99.90
21672;DHT22;10997;52.242;8.168;2023-05-10T18:17:29;15.80;99.90
21672;DHT22;10997;52.242;8.168;2023-05-10T18:22:30;15.80;99.90
21672;DHT22;10997;52.242;8.168;2023-05-10T18:27:31;15.60;99.90
21672;DHT22;10997;52.242;8.168;2023-05-10T18:32:32;15.60;99.90
21672;DHT22;10997;52.242;8.168;2023-05-10T18:37:33;15.50;99.90
21672;DHT22;10997;52.242;8.168;2023-05-10T18:42:34;15.40;99.90
21672;DHT22;10997;52.242;8.168;2023-05-10T18:47:34;15.40;99.90
21672;DHT22;10997;52.242;8.168;2023-05-10T18:52:35;15.30;99.90
21672;DHT22;10997;52.242;8.168;2023-05-10T18:57:39;15.30;99.90
21672;DHT22;10997;52.242;8.168;2023-05-10T19:02:42;15.30;99.90
21672;DHT22;10997;52.242;8.168;2023-05-10T19:07:43;15.20;99.90
21672;DHT22;10997;52.242;8.168;2023-05-10T19:12:44;15.30;99.90
21672;DHT22;10997;52.242;8.168;2023-05-10T19:17:44;15.20;99.90
21672;DHT22;10997;52.242;8.168;2023-05-10T19:22:45;15.10;99.90
21672;DHT22;10997;52.242;8.168;2023-05-10T19:27:45;15.00;99.90
21672;DHT22;10997;52.242;8.168;2023-05-10T19:32:46;14.90;99.90
21672;DHT22;10997;52.242;8.168;2023-05-10T19:37:47;14.80;99.90
21672;DHT22;10997;52.242;8.168;2023-05-10T19:42:49;14.80;99.90
21672;DHT22;10997;52.242;8.168;2023-05-10T19:47:49;14.70;99.90
21672;DHT22;10997;52.242;8.168;2023-05-10T19:52:50;14.60;99.90
21672;DHT22;10997;52.242;8.168;2023-05-10T19:57:51;14.60;99.90
21672;DHT22;10997;52.242;8.168;2023-05-10T20:02:52;14.50;99.90
21672;DHT22;10997;52.242;8.168;2023-05-10T20:07:53;14.50;99.90
21672;DHT22;10997;52.242;8.168;2023-05-10T20:12:53;14.40;99.90
21672;DHT22;10997;52.242;8.168;2023-05-10T20:17:54;14.40;99.90
21672;DHT22;10997;52.242;8.168;2023-05-10T20:22:55;14.40;99.90
21672;DHT22;10997;52.242;8.168;2023-05-10T20:27:57;14.30;99.90
21672;DHT22;10997;52.242;8.168;2023-05-10T20:32:57;14.30;99.90
21672;DHT22;10997;52.242;8.168;2023-05-10T20:37:58;14.20;99.90
21672;DHT22;10997;52.242;8.168;2023-05-10T20:42:59;14.20;99.90
21672;DHT22;10997;52.242;8.168;2023-05-10T20:48:00;14.20;99.90
21672;DHT22;10997;52.242;8.168;2023-05-10T20:53:00;14.20;99.90
21672;DHT22;10997;52.242;8.168;2023-05-10T20:58:01;14.00;99.90
21672;DHT22;10997;52.242;8.168;2023-05-10T21:03:02;13.90;99.90
21672;DHT22;10997;52.242;8.168;2023-05-10T21:08:02;13.90;99.90
21672;DHT22;10997;52.242;8.168;2023-05-10T21:13:03;13.80;99.90
21672;DHT22;10997;52.242;8.168;2023-05-10T21:18:04;13.90;99.90
21672;DHT22;10997;52.242;8.168;2023-05-10T21:23:04;13.80;99.90
21672;DHT22;10997;52.242;8.168;2023-05-10T21:28:05;13.70;99.90
21672;DHT22;10997;52.242;8.168;2023-05-10T21:33:06;13.70;99.90
21672;DHT22;10997;52.242;8.168;2023-05-10T21:38:07;13.70;99.90
21672;DHT22;10997;52.242;8.168;2023-05-10T21:43:07;13.70;99.90
21672;DHT22;10997;52.242;8.168;2023-05-10T21:48:08;13.70;99.90
21672;DHT22;10997;52.242;8.168;2023-05-10T21:53:09;13.60;99.90
21672;DHT22;10997;52.242;8.168;2023-05-10T21:58:10;13.60;99.90
21672;DHT22;10997;52.242;8.168;2023-05-10T22:03:10;13.60;99.90
21672;DHT22;10997;52.242;8.168;2023-05-10T22:08:11;13.60;99.90
21672;DHT22;10997;52.242;8.168;2023-05-10T22:13:12;13.60;99.90
21672;DHT22;10997;52.242;8.168;2023-05-10T22:18:12;13.50;99.90
21672;DHT22;10997;52.242;8.168;2023-05-10T22:23:13;13.60;99.90
21672;DHT22;10997;52.242;8.168;2023-05-10T22:28:13;13.60;99.90
21672;DHT22;10997;52.242;8.168;2023-05-10T22:33:15;13.60;99.90
21672;DHT22;10997;52.242;8.168;2023-05-10T22:38:16;13.60;99.90
21672;DHT22;10997;52.242;8.168;2023-05-10T22:43:17;13.60;99.90
21672;DHT22;10997;52.242;8.168;2023-05-10T22:48:17;13.60;99.90
21672;DHT22;10997;52.242;8.168;2023-05-10T22:53:19;13.70;99.90
21672;DHT22;10997;52.242;8.168;2023-05-10T22:58:20;13.70;99.90
21672;DHT22;10997;52.242;8.168;2023-05-10T23:03:20;13.70;99.90
21672;DHT22;10997;52.242;8.168;2023-05-10T23:08:21;13.70;99.90
21672;DHT22;10997;52.242;8.168;2023-05-10T23:13:22;13.70;99.90
21672;DHT22;10997;52.242;8.168;2023-05-10T23:18:23;13.70;99.90
21672;DHT22;10997;52.242;8.168;2023-05-10T23:23:24;13.70;99.90
21672;DHT22;10997;52.242;8.168;2023-05-10T23:28:24;13.80;99.90
21672;DHT22;10997;52.242;8.168;2023-05-10T23:33:25;13.80;99.90
21672;DHT22;10997;52.242;8.168;2023-05-10T23:38:26;13.80;99.90
21672;DHT22;10997;52.242;8.168;2023-05-10T23:43:26;13.70;99.90
21672;DHT22;10997;52.242;8.168;2023-05-10T23:48:27;13.80;99.90
21672;DHT22;10997;52.242;8.168;2023-05-10T23:53:27;13.70;99.90
21672;DHT22;10997;52.242;8.168;2023-05-10T23:58:28;13.70;99.90
